createdAt,value
2023-03-13T00:02:12.761Z,8.70
2023-03-13T00:04:41.204Z,8.60
2023-03-13T00:07:11.422Z,8.60
2023-03-13T00:09:39.900Z,8.50
2023-03-13T00:12:08.779Z,8.30
2023-03-13T00:14:37.148Z,8.40
2023-03-13T00:17:05.572Z,8.50
2023-03-13T00:19:33.978Z,8.50
2023-03-13T00:22:02.460Z,8.60
2023-03-13T00:24:34.091Z,8.60
2023-03-13T00:27:03.479Z,8.60
2023-03-13T00:29:33.774Z,8.60
2023-03-13T00:32:02.721Z,8.50
2023-03-13T00:34:31.416Z,8.30
2023-03-13T00:37:00.351Z,8.30
2023-03-13T00:39:29.601Z,8.40
2023-03-13T00:42:00.315Z,8.40
2023-03-13T00:44:29.783Z,8.20
2023-03-13T00:46:58.111Z,8.20
2023-03-13T00:49:26.687Z,8.20
2023-03-13T00:51:55.032Z,8.20
2023-03-13T00:54:24.189Z,8.30
2023-03-13T00:56:52.547Z,8.20
2023-03-13T00:59:22.739Z,8.00
2023-03-13T01:01:51.052Z,7.90
2023-03-13T01:04:19.369Z,7.90
2023-03-13T01:06:47.677Z,7.80
2023-03-13T01:09:17.075Z,7.70
2023-03-13T01:11:46.742Z,7.80
2023-03-13T01:14:17.615Z,7.90
2023-03-13T01:16:47.395Z,7.90
2023-03-13T01:19:18.032Z,8.00
2023-03-13T01:21:47.494Z,7.90
2023-03-13T01:24:16.970Z,7.90
2023-03-13T01:26:45.355Z,8.00
2023-03-13T01:29:14.928Z,8.00
2023-03-13T01:31:43.374Z,8.00
2023-03-13T01:34:13.158Z,8.00
2023-03-13T01:36:41.525Z,8.10
2023-03-13T01:39:09.877Z,7.90
2023-03-13T01:41:39.254Z,7.80
2023-03-13T01:44:16.801Z,7.90
2023-03-13T01:46:45.339Z,7.90
2023-03-13T01:49:35.586Z,7.60
2023-03-13T01:52:25.642Z,7.70
2023-03-13T01:55:12.906Z,7.60
2023-03-13T01:57:46.502Z,7.30
2023-03-13T02:00:18.267Z,7.30
2023-03-13T02:02:52.378Z,7.30
2023-03-13T02:05:24.098Z,7.30
2023-03-13T02:07:57.344Z,7.30
2023-03-13T02:10:27.835Z,7.30
2023-03-13T02:12:58.886Z,7.40
2023-03-13T02:15:28.916Z,7.60
2023-03-13T02:17:58.299Z,7.70
2023-03-13T02:20:28.654Z,7.70
2023-03-13T02:23:03.312Z,7.80
2023-03-13T02:25:43.106Z,7.70
2023-03-13T02:28:16.789Z,7.60
2023-03-13T02:30:46.535Z,7.40
2023-03-13T02:33:15.831Z,7.30
2023-03-13T02:35:45.923Z,7.10
2023-03-13T02:38:22.799Z,7.00
2023-03-13T02:40:54.562Z,6.90
2023-03-13T02:43:28.793Z,6.90
2023-03-13T02:46:05.828Z,6.90
2023-03-13T02:48:39.528Z,6.90
2023-03-13T02:51:19.845Z,6.80
2023-03-13T02:53:51.547Z,6.70
2023-03-13T02:56:25.500Z,6.70
2023-03-13T02:58:54.925Z,6.80
2023-03-13T03:01:25.945Z,6.80
2023-03-13T03:03:54.478Z,7.00
2023-03-13T03:06:23.118Z,7.00
2023-03-13T03:08:52.196Z,6.80
2023-03-13T03:11:21.994Z,6.60
2023-03-13T03:13:56.533Z,6.60
2023-03-13T03:16:26.707Z,6.70
2023-03-13T03:18:55.058Z,6.70
2023-03-13T03:21:24.051Z,6.80
2023-03-13T03:23:53.519Z,6.90
2023-03-13T03:26:23.418Z,6.90
2023-03-13T03:28:51.976Z,6.90
2023-03-13T03:31:20.703Z,7.00
2023-03-13T03:33:49.746Z,7.10
2023-03-13T03:36:21.452Z,7.20
2023-03-13T03:38:50.909Z,7.20
2023-03-13T03:41:23.874Z,7.30
2023-03-13T03:43:52.479Z,7.30
2023-03-13T03:46:24.800Z,7.30
2023-03-13T03:48:53.404Z,7.20
2023-03-13T03:51:22.923Z,7.20
2023-03-13T03:53:52.308Z,7.20
2023-03-13T03:56:20.634Z,7.20
2023-03-13T03:58:55.922Z,7.30
2023-03-13T04:01:37.516Z,7.30
2023-03-13T04:04:07.051Z,7.40
2023-03-13T04:06:35.486Z,7.40
2023-03-13T04:09:06.041Z,7.30
2023-03-13T04:11:36.720Z,7.20
2023-03-13T04:14:08.422Z,7.20
2023-03-13T04:16:37.815Z,7.10
2023-03-13T04:19:07.557Z,7.10
2023-03-13T04:21:37.016Z,7.10
2023-03-13T04:24:10.530Z,7.00
2023-03-13T04:26:41.867Z,6.80
2023-03-13T04:29:11.842Z,6.70
2023-03-13T04:31:58.806Z,6.70
2023-03-13T04:34:55.954Z,6.70
2023-03-13T04:37:56.904Z,6.70
2023-03-13T04:40:35.322Z,6.80
2023-03-13T04:43:13.601Z,7.00
2023-03-13T04:46:03.670Z,7.10
2023-03-13T04:49:08.917Z,7.10
2023-03-13T04:51:56.667Z,7.20
2023-03-13T04:54:43.865Z,7.30
2023-03-13T04:57:23.149Z,7.40
2023-03-13T04:59:57.437Z,7.30
2023-03-13T05:02:47.436Z,7.40
2023-03-13T05:05:48.162Z,7.50
2023-03-13T05:08:19.521Z,7.40
2023-03-13T05:10:58.659Z,7.40
2023-03-13T05:13:40.379Z,7.40
2023-03-13T05:16:17.095Z,7.50
2023-03-13T05:19:06.730Z,7.60
2023-03-13T05:21:48.284Z,7.60
2023-03-13T05:24:26.731Z,7.60
2023-03-13T05:27:18.284Z,7.50
2023-03-13T05:30:03.163Z,7.40
2023-03-13T05:32:45.192Z,7.40
2023-03-13T05:35:35.213Z,7.50
2023-03-13T05:38:20.152Z,7.60
2023-03-13T05:41:08.771Z,7.80
2023-03-13T05:43:47.967Z,7.90
2023-03-13T05:46:54.797Z,7.90
2023-03-13T05:49:35.318Z,7.80
2023-03-13T05:52:34.720Z,7.90
2023-03-13T05:55:07.027Z,7.80
2023-03-13T05:57:55.584Z,7.80
2023-03-13T06:00:43.842Z,7.80
2023-03-13T06:03:31.892Z,8.00
2023-03-13T06:06:01.770Z,8.10
2023-03-13T06:08:42.539Z,8.20
2023-03-13T06:11:11.231Z,8.10
2023-03-13T06:13:39.813Z,8.20
2023-03-13T06:16:21.473Z,8.30
2023-03-13T06:18:51.260Z,8.40
2023-03-13T06:21:19.553Z,8.50
2023-03-13T06:23:49.331Z,8.50
2023-03-13T06:26:17.677Z,8.60
2023-03-13T06:28:46.002Z,8.70
2023-03-13T06:31:14.386Z,8.80
2023-03-13T06:33:42.672Z,8.90
2023-03-13T06:36:11.559Z,9.00
2023-03-13T06:38:39.940Z,9.10
2023-03-13T06:41:10.285Z,9.20
2023-03-13T06:43:40.897Z,9.40
2023-03-13T06:46:09.879Z,9.50
2023-03-13T06:48:38.223Z,9.50
2023-03-13T06:51:06.937Z,9.40
2023-03-13T06:53:37.009Z,9.40
2023-03-13T06:56:08.008Z,9.50
2023-03-13T06:58:37.893Z,9.50
2023-03-13T07:01:08.739Z,9.70
2023-03-13T07:03:38.282Z,9.80
2023-03-13T07:06:07.347Z,9.80
2023-03-13T07:08:36.557Z,10.00
2023-03-13T07:11:06.870Z,10.20
2023-03-13T07:13:35.590Z,10.20
2023-03-13T07:16:07.436Z,10.30
2023-03-13T07:18:36.577Z,10.40
2023-03-13T07:21:06.401Z,10.50
2023-03-13T07:23:36.364Z,10.60
2023-03-13T07:26:06.588Z,10.80
2023-03-13T07:28:37.723Z,10.90
2023-03-13T07:31:10.421Z,11.00
2023-03-13T07:33:38.983Z,11.10
2023-03-13T07:36:08.204Z,11.20
2023-03-13T07:38:36.798Z,11.30
2023-03-13T07:41:06.254Z,11.60
2023-03-13T07:43:34.779Z,11.70
2023-03-13T07:46:05.905Z,11.70
2023-03-13T07:48:36.917Z,11.80
2023-03-13T07:51:06.493Z,11.90
2023-03-13T07:53:35.621Z,12.10
2023-03-13T07:56:06.548Z,12.10
2023-03-13T07:58:36.836Z,12.20
2023-03-13T08:01:11.142Z,12.40
2023-03-13T08:03:41.306Z,12.50
2023-03-13T08:06:12.636Z,12.70
2023-03-13T08:08:41.953Z,12.70
2023-03-13T08:11:12.270Z,12.90
2023-03-13T08:13:41.684Z,13.00
2023-03-13T08:16:11.948Z,13.10
2023-03-13T08:18:44.161Z,13.20
2023-03-13T08:21:14.704Z,13.20
2023-03-13T08:23:43.840Z,13.20
2023-03-13T08:26:13.892Z,13.30
2023-03-13T08:28:43.157Z,13.20
2023-03-13T08:31:13.496Z,13.40
2023-03-13T08:33:44.962Z,13.60
2023-03-13T08:36:17.356Z,13.80
2023-03-13T08:38:48.109Z,13.90
2023-03-13T08:41:18.876Z,14.00
2023-03-13T08:43:47.805Z,14.10
2023-03-13T08:46:18.515Z,14.20
2023-03-13T08:48:52.421Z,14.30
2023-03-13T08:51:22.259Z,14.20
2023-03-13T08:53:50.839Z,14.40
2023-03-13T08:56:20.705Z,14.50
2023-03-13T08:58:51.370Z,14.70
2023-03-13T09:01:22.562Z,14.80
2023-03-13T09:03:52.765Z,14.60
2023-03-13T09:06:22.158Z,14.70
2023-03-13T09:08:51.252Z,14.60
2023-03-13T09:11:22.633Z,14.60
2023-03-13T09:13:52.501Z,14.50
2023-03-13T09:16:23.458Z,14.60
2023-03-13T09:18:53.774Z,14.80
2023-03-13T09:21:23.876Z,14.90
2023-03-13T09:23:53.246Z,15.00
2023-03-13T09:26:23.453Z,14.90
2023-03-13T09:28:52.926Z,15.00
2023-03-13T09:31:23.541Z,15.00
2023-03-13T09:33:53.422Z,15.00
2023-03-13T09:36:23.861Z,15.20
2023-03-13T09:38:52.979Z,15.30
2023-03-13T09:41:25.552Z,15.30
2023-03-13T09:44:01.740Z,15.20
2023-03-13T09:46:38.259Z,15.30
2023-03-13T09:49:19.430Z,15.30
2023-03-13T09:51:53.509Z,15.30
2023-03-13T09:54:27.254Z,15.30
2023-03-13T09:56:58.549Z,15.40
2023-03-13T09:59:43.834Z,15.40
2023-03-13T10:02:22.915Z,15.30
2023-03-13T10:04:59.340Z,15.50
2023-03-13T10:07:27.973Z,15.60
2023-03-13T10:09:56.393Z,15.60
2023-03-13T10:12:29.535Z,15.60
2023-03-13T10:15:29.328Z,15.60
2023-03-13T10:17:58.880Z,15.50
2023-03-13T10:20:30.944Z,15.50
2023-03-13T10:23:03.485Z,15.60
2023-03-13T10:25:35.124Z,15.70
2023-03-13T10:28:03.943Z,15.80
2023-03-13T10:30:35.481Z,15.80
2023-03-13T10:33:26.618Z,15.80
2023-03-13T10:36:05.511Z,15.90
2023-03-13T10:38:36.206Z,16.00
2023-03-13T10:41:21.934Z,16.10
2023-03-13T10:43:54.713Z,16.20
2023-03-13T10:46:27.553Z,16.30
2023-03-13T10:48:56.864Z,16.30
2023-03-13T10:51:35.854Z,16.40
2023-03-13T10:54:15.475Z,16.40
2023-03-13T10:56:43.971Z,16.50
2023-03-13T10:59:26.632Z,16.60
2023-03-13T11:02:00.028Z,16.80
2023-03-13T11:04:35.567Z,16.90
2023-03-13T11:07:06.945Z,17.00
2023-03-13T11:09:35.405Z,17.20
2023-03-13T11:12:08.167Z,17.30
2023-03-13T11:14:36.970Z,17.20
2023-03-13T11:17:16.689Z,17.40
2023-03-13T11:20:04.365Z,17.60
2023-03-13T11:22:53.433Z,17.80
2023-03-13T11:25:27.303Z,17.80
2023-03-13T11:28:07.226Z,17.90
2023-03-13T11:30:51.768Z,18.00
2023-03-13T11:33:30.166Z,17.90
2023-03-13T11:36:03.756Z,17.90
2023-03-13T11:38:37.824Z,17.80
2023-03-13T11:41:30.693Z,18.00
2023-03-13T11:44:19.135Z,18.10
2023-03-13T11:46:57.865Z,18.10
2023-03-13T11:49:36.125Z,18.40
2023-03-13T11:52:16.504Z,18.40
2023-03-13T11:55:10.775Z,18.20
2023-03-13T11:57:47.153Z,18.10
2023-03-13T12:00:24.373Z,18.30
2023-03-13T12:02:58.197Z,18.30
2023-03-13T12:05:29.129Z,18.40
2023-03-13T12:08:02.738Z,18.70
2023-03-13T12:10:37.737Z,18.70
2023-03-13T12:13:11.600Z,18.70
2023-03-13T12:15:43.803Z,18.70
2023-03-13T12:18:20.700Z,18.30
2023-03-13T12:20:56.200Z,18.20
2023-03-13T12:23:33.319Z,18.20
2023-03-13T12:26:07.407Z,18.40
2023-03-13T12:28:42.820Z,18.70
2023-03-13T12:31:20.988Z,18.70
2023-03-13T12:33:57.405Z,18.50
2023-03-13T12:36:31.074Z,18.50
2023-03-13T12:39:10.979Z,18.80
2023-03-13T12:41:45.778Z,18.60
2023-03-13T12:44:18.433Z,18.70
2023-03-13T12:46:49.602Z,18.70
2023-03-13T12:49:43.317Z,18.70
2023-03-13T12:52:32.657Z,18.90
2023-03-13T12:55:20.549Z,18.90
2023-03-13T12:58:15.119Z,18.80
2023-03-13T13:00:46.176Z,18.60
2023-03-13T13:03:26.408Z,18.80
2023-03-13T13:06:09.836Z,18.80
2023-03-13T13:08:42.173Z,18.80
2023-03-13T13:11:48.643Z,18.70
2023-03-13T13:14:57.787Z,18.70
2023-03-13T13:18:09.310Z,18.70
2023-03-13T13:20:42.042Z,18.80
2023-03-13T13:23:35.059Z,18.80
2023-03-13T13:26:49.681Z,18.70
2023-03-13T13:29:57.941Z,18.70
2023-03-13T13:32:48.920Z,18.50
2023-03-13T13:35:23.770Z,18.70
2023-03-13T13:37:52.370Z,18.80
2023-03-13T13:40:28.983Z,19.00
2023-03-13T13:42:58.494Z,19.10
2023-03-13T13:45:32.212Z,19.30
2023-03-13T13:48:34.381Z,19.20
2023-03-13T13:51:24.857Z,19.10
2023-03-13T13:53:59.965Z,19.10
2023-03-13T13:56:43.300Z,19.00
2023-03-13T13:59:42.337Z,19.30
2023-03-13T14:02:23.312Z,19.70
2023-03-13T14:05:02.299Z,19.90
2023-03-13T14:07:38.224Z,20.50
2023-03-13T14:10:17.980Z,21.00
2023-03-13T14:12:48.840Z,21.80
2023-03-13T14:15:20.111Z,22.00
2023-03-13T14:17:50.684Z,22.30
2023-03-13T14:20:29.673Z,21.40
2023-03-13T14:23:01.621Z,20.00
2023-03-13T14:25:43.773Z,19.10
2023-03-13T14:28:20.236Z,18.50
2023-03-13T14:30:52.899Z,18.10
2023-03-13T14:33:21.688Z,18.00
2023-03-13T14:35:51.742Z,17.80
2023-03-13T14:38:22.935Z,17.60
2023-03-13T14:40:52.081Z,17.50
2023-03-13T14:43:24.670Z,17.30
2023-03-13T14:45:53.369Z,17.20
2023-03-13T14:48:24.773Z,17.00
2023-03-13T14:51:14.165Z,17.00
2023-03-13T14:53:56.809Z,16.90
2023-03-13T14:56:34.024Z,16.90
2023-03-13T14:59:10.478Z,16.80
2023-03-13T15:01:38.886Z,16.80
2023-03-13T15:04:07.298Z,16.70
2023-03-13T15:06:37.199Z,16.60
2023-03-13T15:09:23.131Z,16.40
2023-03-13T15:11:58.392Z,16.30
2023-03-13T15:14:43.506Z,16.40
2023-03-13T15:17:18.206Z,16.40
2023-03-13T15:19:50.789Z,16.30
2023-03-13T15:22:26.117Z,16.20
2023-03-13T15:25:05.632Z,15.90
2023-03-13T15:27:35.739Z,15.80
2023-03-13T15:30:04.333Z,15.90
2023-03-13T15:32:35.632Z,15.80
2023-03-13T15:35:13.021Z,15.80
2023-03-13T15:37:43.002Z,15.80
2023-03-13T15:40:16.096Z,15.70
2023-03-13T15:42:45.038Z,15.50
2023-03-13T15:45:13.567Z,15.40
2023-03-13T15:47:42.028Z,15.30
2023-03-13T15:50:13.616Z,15.30
2023-03-13T15:52:43.730Z,15.10
2023-03-13T15:55:13.538Z,15.10
2023-03-13T15:57:47.072Z,15.10
2023-03-13T16:00:19.964Z,15.00
2023-03-13T16:02:48.525Z,15.00
2023-03-13T16:05:17.024Z,14.90
2023-03-13T16:07:46.892Z,14.90
2023-03-13T16:10:19.309Z,14.90
2023-03-13T16:12:47.725Z,14.80
2023-03-13T16:15:16.127Z,14.80
2023-03-13T16:17:44.564Z,14.80
2023-03-13T16:20:17.001Z,14.80
2023-03-13T16:22:47.583Z,14.60
2023-03-13T16:25:16.322Z,14.50
2023-03-13T16:27:45.073Z,14.40
2023-03-13T16:30:19.410Z,14.30
2023-03-13T16:32:47.896Z,14.20
2023-03-13T16:35:16.278Z,14.10
2023-03-13T16:37:44.678Z,14.10
2023-03-13T16:40:17.934Z,14.00
2023-03-13T16:42:46.375Z,13.90
2023-03-13T16:45:15.740Z,13.90
2023-03-13T16:47:45.249Z,13.80
2023-03-13T16:50:25.501Z,13.70
2023-03-13T16:52:55.115Z,13.70
2023-03-13T16:55:28.554Z,13.60
2023-03-13T16:57:57.328Z,13.50
2023-03-13T17:00:27.904Z,13.50
2023-03-13T17:02:57.658Z,13.40
2023-03-13T17:05:26.626Z,13.30
2023-03-13T17:07:55.062Z,13.30
2023-03-13T17:10:27.563Z,13.10
2023-03-13T17:12:56.054Z,13.10
2023-03-13T17:15:25.752Z,13.10
2023-03-13T17:17:55.044Z,13.00
2023-03-13T17:20:24.990Z,13.00
2023-03-13T17:22:53.840Z,13.00
2023-03-13T17:25:22.555Z,13.00
2023-03-13T17:27:53.553Z,13.00
2023-03-13T17:30:25.099Z,13.00
2023-03-13T17:32:53.598Z,12.90
2023-03-13T17:35:25.751Z,12.90
2023-03-13T17:37:56.098Z,12.90
2023-03-13T17:40:27.971Z,12.80
2023-03-13T17:42:58.647Z,12.90
2023-03-13T17:45:26.995Z,12.90
2023-03-13T17:47:55.503Z,12.90
2023-03-13T17:50:26.521Z,12.70
2023-03-13T17:52:55.342Z,12.50
2023-03-13T17:55:24.247Z,12.20
2023-03-13T17:57:53.744Z,12.10
2023-03-13T18:00:26.183Z,12.00
2023-03-13T18:02:55.818Z,11.90
2023-03-13T18:05:24.266Z,12.00
2023-03-13T18:07:53.160Z,12.00
2023-03-13T18:10:23.883Z,11.80
2023-03-13T18:12:52.945Z,11.70
2023-03-13T18:15:23.677Z,11.60
2023-03-13T18:17:53.153Z,11.50
2023-03-13T18:20:24.101Z,11.50
2023-03-13T18:22:52.661Z,11.50
2023-03-13T18:25:21.024Z,11.50
2023-03-13T18:27:49.465Z,11.40
2023-03-13T18:30:20.594Z,11.40
2023-03-13T18:32:51.831Z,11.40
2023-03-13T18:35:21.067Z,11.40
2023-03-13T18:37:49.552Z,11.50
2023-03-13T18:40:20.475Z,11.40
2023-03-13T18:42:49.090Z,11.20
2023-03-13T18:45:18.839Z,11.10
2023-03-13T18:47:48.437Z,11.00
2023-03-13T18:50:25.190Z,11.00
2023-03-13T18:52:55.471Z,11.00
2023-03-13T18:55:24.560Z,11.00
2023-03-13T18:57:52.978Z,10.90
2023-03-13T19:00:24.480Z,11.00
2023-03-13T19:02:53.299Z,11.10
2023-03-13T19:05:24.195Z,11.00
2023-03-13T19:07:52.788Z,11.00
2023-03-13T19:10:25.319Z,11.00
2023-03-13T19:12:55.095Z,11.00
2023-03-13T19:15:30.202Z,11.00
2023-03-13T19:18:03.078Z,11.00
2023-03-13T19:20:33.355Z,11.00
2023-03-13T19:23:01.762Z,11.00
2023-03-13T19:25:30.470Z,10.90
2023-03-13T19:27:58.843Z,10.90
2023-03-13T19:30:28.289Z,10.80
2023-03-13T19:32:56.801Z,10.90
2023-03-13T19:35:25.468Z,10.90
2023-03-13T19:37:57.028Z,10.90
2023-03-13T19:40:28.736Z,10.80
2023-03-13T19:42:57.116Z,10.70
2023-03-13T19:45:26.453Z,10.70
2023-03-13T19:47:54.888Z,10.70
2023-03-13T19:50:27.776Z,10.70
2023-03-13T19:52:57.718Z,10.60
2023-03-13T19:55:26.146Z,10.60
2023-03-13T19:57:54.611Z,10.60
2023-03-13T20:00:25.264Z,10.60
2023-03-13T20:02:55.366Z,10.60
2023-03-13T20:05:24.644Z,10.60
2023-03-13T20:07:54.263Z,10.70
2023-03-13T20:10:25.537Z,10.60
2023-03-13T20:12:54.375Z,10.40
2023-03-13T20:15:22.720Z,10.30
2023-03-13T20:17:51.140Z,10.40
2023-03-13T20:20:19.842Z,10.40
2023-03-13T20:22:49.150Z,10.40
2023-03-13T20:25:17.590Z,10.40
2023-03-13T20:27:47.385Z,10.30
2023-03-13T20:30:15.878Z,10.20
2023-03-13T20:32:57.033Z,10.20
2023-03-13T20:35:29.491Z,10.20
2023-03-13T20:37:59.859Z,10.20
2023-03-13T20:40:28.401Z,10.30
2023-03-13T20:42:59.447Z,10.30
2023-03-13T20:45:28.628Z,10.30
2023-03-13T20:47:57.259Z,10.20
2023-03-13T20:50:26.234Z,10.20
2023-03-13T20:52:55.700Z,10.20
2023-03-13T20:55:24.070Z,10.10
2023-03-13T20:57:52.447Z,10.10
2023-03-13T21:00:23.487Z,10.10
2023-03-13T21:02:51.929Z,10.00
2023-03-13T21:05:20.485Z,10.00
2023-03-13T21:07:48.963Z,9.90
2023-03-13T21:10:18.251Z,10.00
2023-03-13T21:12:46.760Z,10.00
2023-03-13T21:15:15.110Z,10.00
2023-03-13T21:17:44.881Z,10.00
2023-03-13T21:20:13.820Z,9.90
2023-03-13T21:22:43.452Z,9.90
2023-03-13T21:25:13.254Z,9.90
2023-03-13T21:27:43.881Z,9.90
2023-03-13T21:30:14.745Z,9.90
2023-03-13T21:32:45.411Z,10.00
2023-03-13T21:35:14.732Z,10.00
2023-03-13T21:37:43.710Z,9.90
2023-03-13T21:40:13.606Z,9.80
2023-03-13T21:42:42.022Z,9.80
2023-03-13T21:45:12.009Z,9.80
2023-03-13T21:47:40.600Z,9.80
2023-03-13T21:50:12.529Z,9.80
2023-03-13T21:52:42.454Z,9.80
2023-03-13T21:55:13.566Z,9.80
2023-03-13T21:57:42.139Z,9.80
2023-03-13T22:00:14.173Z,9.80
2023-03-13T22:02:43.495Z,9.70
2023-03-13T22:05:13.468Z,9.70
2023-03-13T22:07:41.926Z,9.70
2023-03-13T22:10:11.422Z,9.70
2023-03-13T22:12:41.493Z,9.70
2023-03-13T22:15:11.290Z,9.70
2023-03-13T22:17:39.702Z,9.70
2023-03-13T22:20:10.137Z,9.80
2023-03-13T22:22:39.886Z,9.80
2023-03-13T22:25:08.836Z,9.80
2023-03-13T22:27:37.201Z,9.90
2023-03-13T22:30:06.634Z,9.80
2023-03-13T22:32:35.055Z,9.80
2023-03-13T22:35:03.581Z,9.90
2023-03-13T22:37:31.929Z,9.70
2023-03-13T22:40:01.718Z,9.80
2023-03-13T22:42:30.016Z,9.80
2023-03-13T22:44:58.347Z,9.80
2023-03-13T22:47:26.918Z,9.80
2023-03-13T22:49:55.289Z,9.80
2023-03-13T22:52:29.087Z,9.90
2023-03-13T22:54:57.743Z,9.90
2023-03-13T22:57:29.169Z,9.70
2023-03-13T22:59:59.270Z,9.60
2023-03-13T23:02:28.123Z,9.50
2023-03-13T23:04:58.619Z,9.40
2023-03-13T23:07:28.488Z,9.40
2023-03-13T23:09:57.531Z,9.40
2023-03-13T23:12:30.750Z,9.50
2023-03-13T23:15:00.200Z,9.50
2023-03-13T23:17:30.338Z,9.50
2023-03-13T23:20:01.235Z,9.50
2023-03-13T23:22:33.022Z,9.50
2023-03-13T23:25:02.323Z,9.50
2023-03-13T23:27:32.155Z,9.40
2023-03-13T23:30:04.240Z,9.50
2023-03-13T23:32:37.369Z,9.50
2023-03-13T23:35:07.895Z,9.60
2023-03-13T23:37:36.740Z,9.60
2023-03-13T23:40:08.388Z,9.60
2023-03-13T23:42:38.110Z,9.60
2023-03-13T23:45:07.200Z,9.60
2023-03-13T23:47:35.623Z,9.60
2023-03-13T23:50:05.472Z,9.50
2023-03-13T23:52:35.471Z,9.50
2023-03-13T23:55:04.702Z,9.50
2023-03-13T23:57:33.329Z,9.50
